Time;durP1;ratioP1;P1;durP2;ratioP2;P2;SDS_P1;SDS_P2;PMS_P1;PMS_P2;Temp;Humidity;BMP_temperature;BMP_pressure;BME280_temperature;BME280_humidity;BME280_pressure;Samples;Min_cycle;Max_cycle;Signal;HPM_P1;HPM_P2
2023/02/13 00:02:05;;;;;;;1.33;0.80;;;9.10;99.90;;;;;;5106804;27;20684;-65
2023/02/13 00:04:33;;;;;;;1.37;0.80;;;9.10;99.90;;;;;;5107095;28;20217;-65
2023/02/13 00:07:00;;;;;;;2.10;1.30;;;9.10;99.90;;;;;;5105309;28;20199;-65
2023/02/13 00:09:29;;;;;;;1.20;0.90;;;9.10;99.90;;;;;;5104946;28;20208;-64
2023/02/13 00:11:56;;;;;;;2.53;0.97;;;9.10;99.90;;;;;;5103343;28;20290;-64
2023/02/13 00:14:25;;;;;;;5.53;1.20;;;9.10;99.90;;;;;;5106745;28;20200;-64
2023/02/13 00:16:52;;;;;;;4.03;1.30;;;9.00;99.90;;;;;;5102731;28;20194;-64
2023/02/13 00:19:19;;;;;;;3.50;1.27;;;9.10;99.90;;;;;;5106221;28;20203;-64
2023/02/13 00:21:46;;;;;;;2.10;0.80;;;9.10;99.90;;;;;;5106075;28;20206;-65
2023/02/13 00:24:14;;;;;;;2.43;1.10;;;9.10;99.90;;;;;;5105418;28;20277;-65
2023/02/13 00:26:46;;;;;;;2.27;0.93;;;9.10;99.90;;;;;;5106822;27;20197;-65
2023/02/13 00:29:13;;;;;;;3.93;1.00;;;9.10;99.90;;;;;;5106242;28;20577;-65
2023/02/13 00:31:42;;;;;;;1.40;0.90;;;9.10;99.90;;;;;;5107998;28;20216;-64
2023/02/13 00:34:09;;;;;;;4.30;1.20;;;9.10;99.90;;;;;;5101583;28;20206;-64
2023/02/13 00:36:37;;;;;;;1.43;0.90;;;9.10;99.90;;;;;;5095726;28;20539;-65
2023/02/13 00:39:04;;;;;;;0.97;0.87;;;9.10;99.90;;;;;;5105068;28;20268;-63
2023/02/13 00:41:31;;;;;;;1.43;0.90;;;9.10;99.90;;;;;;5106950;28;20199;-64
2023/02/13 00:43:58;;;;;;;1.43;1.10;;;9.10;99.90;;;;;;5104985;28;20202;-64
2023/02/13 00:46:25;;;;;;;1.60;0.70;;;9.10;99.90;;;;;;5106372;28;20249;-64
2023/02/13 00:48:55;;;;;;;1.03;0.90;;;9.10;99.90;;;;;;5105301;28;20632;-64
2023/02/13 00:51:22;;;;;;;0.80;0.80;;;9.10;99.90;;;;;;5105863;27;20193;-64
2023/02/13 00:53:49;;;;;;;1.33;0.80;;;9.10;99.90;;;;;;5108912;28;20195;-64
2023/02/13 00:56:16;;;;;;;1.53;0.67;;;9.10;99.90;;;;;;5102874;28;20196;-63
2023/02/13 00:58:45;;;;;;;1.27;0.83;;;9.10;99.90;;;;;;5120658;27;20561;-63
2023/02/13 01:01:12;;;;;;;1.60;0.93;;;9.10;99.90;;;;;;5099540;28;20657;-64
2023/02/13 01:03:39;;;;;;;1.77;0.73;;;9.10;99.90;;;;;;5105835;28;20287;-64
2023/02/13 01:06:08;;;;;;;2.53;1.23;;;9.10;99.90;;;;;;5105547;28;20210;-63
2023/02/13 01:08:38;;;;;;;2.83;0.90;;;9.10;99.90;;;;;;5103814;28;20214;-65
2023/02/13 01:11:06;;;;;;;1.87;0.97;;;9.10;99.90;;;;;;5097332;28;20191;-64
2023/02/13 01:13:33;;;;;;;2.13;1.20;;;9.10;99.90;;;;;;5098301;27;20194;-64
2023/02/13 01:16:00;;;;;;;1.50;0.90;;;9.00;99.90;;;;;;5103774;28;20199;-64
2023/02/13 01:18:28;;;;;;;3.50;1.10;;;9.00;99.90;;;;;;5103929;28;20216;-63
2023/02/13 01:21:00;;;;;;;4.00;1.17;;;9.00;99.90;;;;;;5101864;28;20198;-64
2023/02/13 01:23:31;;;;;;;5.43;1.30;;;9.00;99.90;;;;;;5102428;28;20229;-64
2023/02/13 01:25:59;;;;;;;2.13;1.30;;;9.00;99.90;;;;;;5103324;28;20185;-63
2023/02/13 01:28:27;;;;;;;2.77;1.30;;;8.90;99.90;;;;;;5105763;28;20659;-64
2023/02/13 01:30:55;;;;;;;2.67;1.13;;;8.90;99.90;;;;;;5104168;28;20296;-64
2023/02/13 01:33:22;;;;;;;1.17;1.10;;;8.90;99.90;;;;;;5103299;28;20562;-64
2023/02/13 01:35:50;;;;;;;1.93;0.97;;;8.90;99.90;;;;;;5106837;28;20191;-63
2023/02/13 01:38:17;;;;;;;1.53;1.10;;;8.90;99.90;;;;;;5104429;28;20210;-63
2023/02/13 01:40:50;;;;;;;1.90;1.10;;;8.90;99.90;;;;;;5103790;28;20190;-64
2023/02/13 01:43:18;;;;;;;1.43;1.10;;;8.90;99.90;;;;;;5103036;28;20221;-64
2023/02/13 01:45:46;;;;;;;2.93;1.10;;;8.90;99.90;;;;;;5102786;28;20586;-64
2023/02/13 01:48:17;;;;;;;4.13;1.37;;;8.90;99.90;;;;;;5104359;28;20201;-63
2023/02/13 01:50:48;;;;;;;1.70;0.90;;;8.90;99.90;;;;;;5104206;28;20308;-64
2023/02/13 01:53:24;;;;;;;2.50;1.13;;;8.90;99.90;;;;;;5104908;28;20180;-65
2023/02/13 01:55:58;;;;;;;1.60;1.10;;;8.90;99.90;;;;;;5105107;28;20707;-65
2023/02/13 01:58:31;;;;;;;3.53;1.20;;;8.80;99.90;;;;;;5103425;27;20618;-65
2023/02/13 02:03:43;;;;;;;1.90;1.10;;;8.80;99.90;;;;;;5031414;22;20226;-66
2023/02/13 02:06:17;;;;;;;3.03;1.17;;;8.80;99.90;;;;;;5010376;28;20202;-66
2023/02/13 02:08:44;;;;;;;2.80;1.10;;;8.80;99.90;;;;;;4998593;28;21148;-66
2023/02/13 02:11:25;;;;;;;1.53;1.10;;;8.80;99.90;;;;;;5018569;28;20668;-66
2023/02/13 02:13:54;;;;;;;3.90;1.23;;;8.60;99.90;;;;;;5000581;28;20304;-66
2023/02/13 02:16:32;;;;;;;1.47;0.80;;;8.80;99.90;;;;;;5008319;28;20289;-66
2023/02/13 02:19:01;;;;;;;2.97;1.00;;;8.80;99.90;;;;;;5008947;28;20223;-67
2023/02/13 02:21:57;;;;;;;1.90;1.13;;;8.80;99.90;;;;;;5008015;28;20222;-65
2023/02/13 02:25:15;;;;;;;1.10;0.80;;;8.80;99.90;;;;;;4993970;28;20207;-67
2023/02/13 02:28:25;;;;;;;2.13;1.00;;;8.80;99.90;;;;;;4918490;29;20238;-66
2023/02/13 02:31:29;;;;;;;0.90;0.90;;;8.70;99.90;;;;;;4868826;29;20724;-67
2023/02/13 02:34:13;;;;;;;3.37;1.43;;;8.80;99.90;;;;;;4991434;28;20220;-66
2023/02/13 02:36:59;;;;;;;4.60;1.10;;;8.70;99.90;;;;;;5002639;28;20207;-66
2023/02/13 02:39:32;;;;;;;1.10;1.00;;;8.80;99.90;;;;;;4990658;28;20207;-66
2023/02/13 02:42:10;;;;;;;1.90;1.00;;;8.80;99.90;;;;;;4992505;28;20647;-67
2023/02/13 02:44:43;;;;;;;1.93;1.23;;;8.80;99.90;;;;;;5015701;28;20261;-67
2023/02/13 02:50:21;;;;;;;2.60;1.40;;;8.80;99.90;;;;;;4988898;28;20206;-66
2023/02/13 02:52:59;;;;;;;1.63;1.20;;;8.80;99.90;;;;;;4992678;28;20200;-66
2023/02/13 02:55:35;;;;;;;1.47;0.87;;;8.80;99.90;;;;;;5004258;28;20384;-66
2023/02/13 03:06:37;;;;;;;1.57;1.00;;;8.90;99.90;;;;;;4992981;28;20189;-66
2023/02/13 03:14:41;;;;;;;1.13;1.00;;;9.00;99.90;;;;;;4999109;28;20201;-65
2023/02/13 03:23:05;;;;;;;0.70;0.70;;;9.10;99.90;;;;;;4991297;28;20748;-66
2023/02/13 03:25:44;;;;;;;1.57;0.90;;;9.10;99.90;;;;;;5000352;28;20219;-67
2023/02/13 03:31:12;;;;;;;1.27;1.10;;;9.10;99.90;;;;;;4990602;28;20652;-66
2023/02/13 03:33:53;;;;;;;0.90;0.83;;;9.20;99.90;;;;;;4999933;28;20206;-66
2023/02/13 03:39:22;;;;;;;1.37;0.87;;;9.20;99.90;;;;;;4992330;28;20202;-67
2023/02/13 03:41:54;;;;;;;1.90;1.00;;;9.20;99.90;;;;;;5006484;28;20210;-66
2023/02/13 03:44:28;;;;;;;2.57;1.40;;;9.20;99.90;;;;;;4990451;28;20201;-65
2023/02/13 03:46:59;;;;;;;2.93;1.40;;;9.10;99.90;;;;;;4991062;28;20202;-67
2023/02/13 03:52:22;;;;;;;1.70;1.30;;;9.10;99.90;;;;;;4993858;28;20242;-66
2023/02/13 04:00:33;;;;;;;0.90;0.90;;;9.10;99.90;;;;;;4999493;28;20197;-66
2023/02/13 04:03:08;;;;;;;1.20;0.90;;;9.10;99.90;;;;;;5001302;28;20244;-66
2023/02/13 04:05:41;;;;;;;2.43;1.33;;;9.10;99.90;;;;;;4996681;28;20209;-66
2023/02/13 04:08:08;;;;;;;1.43;1.10;;;9.10;99.90;;;;;;4999601;28;20552;-65
2023/02/13 04:10:46;;;;;;;1.37;1.23;;;9.20;99.90;;;;;;4999231;28;20249;-66
2023/02/13 04:13:17;;;;;;;1.30;0.90;;;9.20;99.90;;;;;;4994029;28;20238;-68
2023/02/13 04:15:49;;;;;;;1.10;0.80;;;9.20;99.90;;;;;;4993676;28;20208;-66
2023/02/13 04:18:20;;;;;;;0.70;0.70;;;9.20;99.90;;;;;;4991716;28;20197;-67
2023/02/13 04:20:48;;;;;;;1.20;1.10;;;9.20;99.90;;;;;;5008475;28;20206;-66
2023/02/13 04:23:15;;;;;;;1.10;1.00;;;9.30;99.90;;;;;;4996767;28;20236;-68
2023/02/13 04:25:48;;;;;;;0.97;0.93;;;9.30;99.90;;;;;;4994446;28;20695;-66
2023/02/13 04:28:15;;;;;;;1.07;0.87;;;9.30;99.90;;;;;;4994875;28;20198;-66
2023/02/13 04:30:43;;;;;;;1.50;0.80;;;9.30;99.90;;;;;;4998239;28;20207;-65
2023/02/13 04:33:10;;;;;;;1.00;1.00;;;9.30;99.90;;;;;;5003368;28;20209;-67
2023/02/13 04:35:37;;;;;;;0.90;0.90;;;9.30;99.90;;;;;;4994045;28;20618;-66
2023/02/13 04:38:05;;;;;;;1.50;1.03;;;9.30;99.90;;;;;;4996415;28;20192;-66
2023/02/13 04:40:34;;;;;;;1.57;1.00;;;9.30;99.90;;;;;;4997159;28;20580;-67
2023/02/13 04:43:03;;;;;;;1.30;1.00;;;9.40;99.90;;;;;;4997645;28;21511;-67
2023/02/13 04:45:30;;;;;;;2.40;1.33;;;9.40;99.90;;;;;;4995064;28;20189;-67
2023/02/13 04:47:58;;;;;;;1.37;1.20;;;9.40;99.90;;;;;;4992610;28;20203;-67
2023/02/13 04:50:25;;;;;;;1.23;1.00;;;9.40;99.90;;;;;;5008806;28;20207;-67
2023/02/13 04:52:54;;;;;;;1.10;1.00;;;9.50;99.90;;;;;;4994724;28;20195;-66
2023/02/13 04:55:21;;;;;;;2.20;1.07;;;9.50;99.90;;;;;;4994346;28;20202;-67
2023/02/13 04:57:48;;;;;;;2.30;1.20;;;9.50;99.90;;;;;;4992041;28;20202;-67
2023/02/13 05:00:18;;;;;;;1.07;0.97;;;9.50;99.90;;;;;;4994190;28;20218;-67
2023/02/13 05:02:45;;;;;;;1.57;1.10;;;9.50;99.90;;;;;;4994731;28;20321;-67
2023/02/13 05:05:12;;;;;;;1.23;1.00;;;9.50;99.90;;;;;;4995662;28;20201;-67
2023/02/13 05:07:40;;;;;;;0.93;0.93;;;9.50;99.90;;;;;;4992358;28;20285;-66
2023/02/13 05:10:09;;;;;;;1.90;1.43;;;9.50;99.90;;;;;;4997153;28;20229;-66
2023/02/13 05:12:36;;;;;;;1.97;1.30;;;9.50;99.90;;;;;;4995689;28;20207;-66
2023/02/13 05:15:03;;;;;;;1.60;1.50;;;9.50;99.90;;;;;;5001330;28;20203;-67
2023/02/13 05:17:32;;;;;;;2.80;1.40;;;9.50;99.90;;;;;;5000213;28;20195;-65
2023/02/13 05:19:59;;;;;;;1.47;1.10;;;9.50;99.90;;;;;;4996430;28;20218;-66
2023/02/13 05:25:11;;;;;;;2.37;1.50;;;9.50;99.90;;;;;;4992672;28;20195;-66
2023/02/13 05:27:38;;;;;;;3.00;1.50;;;9.50;99.90;;;;;;4993802;28;20194;-66
2023/02/13 05:30:06;;;;;;;1.30;1.20;;;9.50;99.90;;;;;;4992176;28;20230;-66
2023/02/13 05:32:34;;;;;;;2.10;1.50;;;9.50;99.90;;;;;;4992869;28;20205;-68
2023/02/13 05:35:01;;;;;;;1.60;1.23;;;9.50;99.90;;;;;;4992803;28;20198;-66
2023/02/13 05:37:29;;;;;;;1.67;1.40;;;9.50;99.90;;;;;;4992655;28;20211;-66
2023/02/13 05:39:56;;;;;;;2.10;1.40;;;9.50;99.90;;;;;;4998095;28;20296;-68
2023/02/13 05:42:23;;;;;;;2.60;1.30;;;9.50;99.90;;;;;;4997620;28;20210;-66
2023/02/13 05:44:50;;;;;;;1.80;1.70;;;9.50;99.90;;;;;;4994984;28;20207;-67
2023/02/13 05:47:17;;;;;;;2.03;1.30;;;9.50;99.90;;;;;;5002771;28;20190;-66
2023/02/13 05:49:45;;;;;;;1.60;1.50;;;9.50;99.90;;;;;;4998476;28;20197;-66
2023/02/13 05:52:13;;;;;;;1.33;1.20;;;9.50;99.90;;;;;;5000204;28;20588;-67
2023/02/13 05:54:40;;;;;;;3.50;1.37;;;9.50;99.90;;;;;;4997933;28;20202;-67
2023/02/13 05:57:07;;;;;;;1.37;1.27;;;9.50;99.90;;;;;;4994413;28;20287;-66
2023/02/13 05:59:34;;;;;;;1.00;1.00;;;9.50;99.90;;;;;;4989523;28;20203;-66
2023/02/13 06:02:01;;;;;;;1.30;1.20;;;9.50;99.90;;;;;;4993383;28;20210;-67
2023/02/13 06:04:28;;;;;;;2.97;1.30;;;9.50;99.90;;;;;;4996428;28;20232;-67
2023/02/13 06:06:57;;;;;;;2.07;1.07;;;9.50;99.90;;;;;;4996688;28;20241;-67
2023/02/13 06:09:24;;;;;;;1.20;1.10;;;9.50;99.90;;;;;;5014639;28;20580;-67
2023/02/13 06:11:51;;;;;;;1.93;1.30;;;9.50;99.90;;;;;;4998104;28;20229;-67
2023/02/13 06:14:19;;;;;;;2.27;1.37;;;9.60;99.90;;;;;;4998965;28;20209;-66
2023/02/13 06:16:46;;;;;;;2.43;1.20;;;9.60;99.90;;;;;;5008732;28;20301;-67
2023/02/13 06:19:13;;;;;;;2.00;1.30;;;9.50;99.90;;;;;;5001907;28;20198;-65
2023/02/13 06:21:40;;;;;;;1.37;1.27;;;9.50;99.90;;;;;;4991040;28;20202;-66
2023/02/13 06:24:09;;;;;;;1.33;1.23;;;9.50;99.90;;;;;;4991896;28;20208;-66
2023/02/13 06:26:36;;;;;;;2.33;1.37;;;9.60;99.90;;;;;;4986078;28;20737;-66
2023/02/13 06:29:03;;;;;;;1.00;0.90;;;9.50;99.90;;;;;;4998766;28;20727;-68
2023/02/13 06:31:30;;;;;;;1.43;1.30;;;9.50;99.90;;;;;;5005126;28;20221;-68
2023/02/13 06:34:00;;;;;;;1.17;1.00;;;9.50;99.90;;;;;;4995479;28;20286;-68
2023/02/13 06:36:27;;;;;;;1.53;1.10;;;9.50;99.90;;;;;;5006221;28;20210;-68
2023/02/13 06:38:54;;;;;;;1.37;1.00;;;9.60;99.90;;;;;;4992172;28;20199;-69
2023/02/13 06:41:23;;;;;;;0.70;0.70;;;9.60;99.90;;;;;;4988976;28;20198;-69
2023/02/13 06:43:50;;;;;;;1.73;1.00;;;9.60;99.90;;;;;;4996831;28;20277;-68
2023/02/13 06:46:17;;;;;;;2.10;0.90;;;9.60;99.90;;;;;;4992430;28;20207;-68
2023/02/13 06:48:44;;;;;;;3.70;1.80;;;9.60;99.90;;;;;;4996851;28;20206;-68
2023/02/13 06:51:11;;;;;;;1.03;1.00;;;9.60;99.90;;;;;;4995079;28;20248;-69
2023/02/13 06:53:39;;;;;;;1.33;1.17;;;9.60;99.90;;;;;;4994731;28;20240;-67
2023/02/13 06:56:06;;;;;;;1.17;1.07;;;9.60;99.90;;;;;;5007313;28;20642;-69
2023/02/13 06:58:38;;;;;;;2.73;1.57;;;9.60;99.90;;;;;;4991023;28;20201;-69
2023/02/13 07:01:06;;;;;;;1.80;1.30;;;9.60;99.90;;;;;;4992993;28;20199;-68
2023/02/13 07:03:33;;;;;;;3.47;2.30;;;9.70;99.90;;;;;;4995328;28;20233;-68
2023/02/13 07:06:00;;;;;;;3.67;1.90;;;9.70;99.90;;;;;;4996344;28;20209;-69
2023/02/13 07:08:27;;;;;;;3.67;2.30;;;9.70;99.90;;;;;;4995537;28;20573;-68
2023/02/13 07:10:54;;;;;;;3.97;1.83;;;9.70;99.90;;;;;;4995213;28;20326;-69
2023/02/13 07:13:21;;;;;;;2.90;1.73;;;9.70;99.90;;;;;;5001803;28;20211;-69
2023/02/13 07:15:50;;;;;;;3.13;1.97;;;9.70;99.90;;;;;;4996280;28;20195;-69
2023/02/13 07:18:17;;;;;;;2.20;1.60;;;9.60;99.90;;;;;;4994416;28;20992;-68
2023/02/13 07:20:44;;;;;;;1.73;1.53;;;9.70;99.90;;;;;;4992660;28;20250;-68
2023/02/13 07:23:11;;;;;;;2.43;1.60;;;9.70;99.90;;;;;;5009553;28;20309;-69
2023/02/13 07:25:38;;;;;;;1.50;1.40;;;9.70;99.90;;;;;;4997311;28;20306;-69
2023/02/13 07:28:07;;;;;;;3.03;1.50;;;9.70;99.90;;;;;;5017936;28;20218;-68
2023/02/13 07:30:34;;;;;;;1.63;1.30;;;9.70;99.90;;;;;;5001817;28;20218;-69
2023/02/13 07:33:06;;;;;;;2.47;1.87;;;9.80;99.90;;;;;;4993705;28;20206;-69
2023/02/13 07:35:35;;;;;;;2.60;1.60;;;9.80;99.90;;;;;;4998069;28;20201;-68
2023/02/13 07:38:02;;;;;;;2.07;1.77;;;9.80;99.90;;;;;;5019464;28;20204;-68
2023/02/13 07:40:31;;;;;;;5.67;2.00;;;9.80;99.90;;;;;;4995686;28;20198;-68
2023/02/13 07:43:01;;;;;;;2.73;1.53;;;9.80;99.90;;;;;;4994875;28;20739;-68
2023/02/13 07:45:28;;;;;;;3.73;2.30;;;9.90;99.90;;;;;;4994131;28;20202;-68
2023/02/13 07:47:59;;;;;;;2.30;1.73;;;9.90;99.90;;;;;;4996105;28;20260;-69
2023/02/13 07:50:31;;;;;;;2.60;1.70;;;9.90;99.90;;;;;;4993761;28;20254;-68
2023/02/13 07:53:00;;;;;;;2.00;1.40;;;10.30;99.90;;;;;;5001893;28;20190;-67
2023/02/13 07:55:29;;;;;;;3.33;1.30;;;10.00;99.90;;;;;;4994767;28;20284;-68
2023/02/13 07:57:57;;;;;;;2.13;1.30;;;10.00;99.90;;;;;;4995186;28;20974;-68
2023/02/13 08:00:24;;;;;;;2.50;1.60;;;10.00;99.90;;;;;;5005854;28;20199;-68
2023/02/13 08:02:52;;;;;;;2.40;1.60;;;10.00;99.90;;;;;;5001066;28;20345;-67
2023/02/13 08:05:19;;;;;;;4.07;1.70;;;10.10;99.90;;;;;;4993670;28;20196;-67
2023/02/13 08:07:47;;;;;;;1.50;1.40;;;10.00;99.90;;;;;;4997768;28;20691;-67
2023/02/13 08:13:00;;;;;;;5.33;1.60;;;10.00;99.90;;;;;;4994212;28;20289;-68
2023/02/13 08:15:27;;;;;;;1.63;1.50;;;10.10;99.90;;;;;;4998082;28;20200;-68
2023/02/13 08:17:54;;;;;;;3.00;1.50;;;10.10;99.90;;;;;;4995149;28;20209;-67
2023/02/13 08:20:21;;;;;;;2.00;1.57;;;10.10;99.90;;;;;;4997986;28;20261;-68
2023/02/13 08:22:50;;;;;;;3.83;1.60;;;10.10;99.90;;;;;;5003919;28;20190;-67
2023/02/13 08:25:18;;;;;;;1.57;1.27;;;10.10;99.90;;;;;;4994901;28;20202;-68
2023/02/13 08:27:45;;;;;;;2.70;1.50;;;10.10;99.90;;;;;;4994879;28;20203;-67
2023/02/13 08:30:14;;;;;;;2.53;1.37;;;10.20;99.90;;;;;;4990794;28;20211;-67
2023/02/13 08:32:41;;;;;;;3.00;1.57;;;10.30;99.90;;;;;;4993679;28;20206;-67
2023/02/13 08:35:08;;;;;;;2.60;1.60;;;10.30;99.90;;;;;;4995364;28;20207;-67
2023/02/13 08:37:35;;;;;;;2.97;1.50;;;10.30;99.90;;;;;;4991618;28;20274;-68
2023/02/13 08:40:04;;;;;;;2.03;1.33;;;10.40;99.90;;;;;;5010790;28;20254;-67
2023/02/13 08:42:31;;;;;;;2.20;1.30;;;10.40;99.90;;;;;;4995413;28;20195;-67
2023/02/13 08:44:59;;;;;;;1.77;1.33;;;10.30;99.90;;;;;;5012671;28;20192;-67
2023/02/13 08:47:26;;;;;;;2.63;1.50;;;10.40;99.90;;;;;;5002357;28;20206;-68
2023/02/13 08:49:56;;;;;;;4.97;1.67;;;10.40;99.90;;;;;;4996042;28;20212;-67
2023/02/13 08:52:23;;;;;;;4.53;1.80;;;10.40;99.90;;;;;;4996065;28;20211;-67
2023/02/13 08:54:50;;;;;;;1.70;1.60;;;10.50;99.90;;;;;;4995418;28;20548;-67
2023/02/13 08:57:19;;;;;;;4.37;1.73;;;10.50;99.90;;;;;;5006114;28;20284;-67
2023/02/13 08:59:46;;;;;;;2.70;1.40;;;10.50;99.90;;;;;;4995927;28;20215;-67
2023/02/13 09:02:13;;;;;;;1.90;1.10;;;10.50;99.90;;;;;;4991931;28;20242;-67
2023/02/13 09:04:40;;;;;;;2.67;1.77;;;10.60;99.90;;;;;;4992880;28;20194;-67
2023/02/13 09:07:08;;;;;;;3.27;1.60;;;10.60;99.90;;;;;;5008429;28;20755;-67
2023/02/13 09:09:35;;;;;;;4.27;1.90;;;10.70;99.90;;;;;;4995358;28;20211;-67
2023/02/13 09:12:07;;;;;;;3.83;2.00;;;10.80;99.90;;;;;;4992699;28;20293;-68
2023/02/13 09:14:45;;;;;;;4.00;1.87;;;10.80;99.90;;;;;;4995188;28;20225;-68
2023/02/13 09:17:13;;;;;;;2.53;1.60;;;10.80;99.90;;;;;;4996137;28;20265;-66
2023/02/13 09:19:40;;;;;;;6.60;1.93;;;10.80;99.90;;;;;;4996075;28;20223;-68
2023/02/13 09:22:07;;;;;;;3.37;1.70;;;10.90;99.90;;;;;;5000142;28;20587;-68
2023/02/13 09:24:34;;;;;;;4.37;1.70;;;11.00;99.90;;;;;;4993933;28;20198;-67
2023/02/13 09:27:02;;;;;;;5.90;2.87;;;11.10;99.90;;;;;;4982973;28;20280;-62
2023/02/13 09:29:30;;;;;;;7.80;2.20;;;11.20;99.90;;;;;;4991802;28;20236;-61
2023/02/13 09:31:59;;;;;;;5.00;2.03;;;11.30;99.90;;;;;;4986653;28;20230;-62
2023/02/13 09:34:27;;;;;;;4.20;2.13;;;11.40;99.90;;;;;;5006637;28;20208;-62
2023/02/13 09:36:55;;;;;;;6.13;1.80;;;11.50;99.90;;;;;;4997062;28;20254;-62
2023/02/13 09:39:23;;;;;;;2.43;1.63;;;11.60;99.90;;;;;;4995831;28;20681;-61
2023/02/13 09:41:53;;;;;;;1.90;1.50;;;11.70;99.90;;;;;;4999926;28;20195;-63
2023/02/13 09:44:34;;;;;;;3.10;1.60;;;11.70;99.90;;;;;;4998250;28;20534;-62
2023/02/13 09:47:13;;;;;;;3.27;1.87;;;11.80;99.80;;;;;;4997480;28;20282;-62
2023/02/13 09:49:44;;;;;;;3.23;1.83;;;12.00;99.60;;;;;;4994479;28;20310;-62
2023/02/13 09:52:11;;;;;;;1.70;1.33;;;12.10;99.30;;;;;;5002776;28;20558;-62
2023/02/13 09:54:39;;;;;;;2.37;1.60;;;12.20;99.20;;;;;;4994539;28;20207;-63
2023/02/13 09:57:16;;;;;;;8.47;1.90;;;12.20;99.00;;;;;;4996952;28;20206;-62
2023/02/13 09:59:55;;;;;;;6.90;1.83;;;12.30;98.50;;;;;;4998067;28;20188;-63
2023/02/13 10:02:45;;;;;;;5.13;1.53;;;12.30;97.60;;;;;;4998085;28;20219;-63
2023/02/13 10:05:37;;;;;;;2.67;1.50;;;12.40;97.40;;;;;;4998347;28;20777;-63
2023/02/13 10:08:15;;;;;;;3.27;1.50;;;12.70;97.10;;;;;;4997669;28;20742;-62
2023/02/13 10:10:51;;;;;;;4.70;1.50;;;13.00;96.70;;;;;;4991239;28;20205;-62
2023/02/13 10:13:42;;;;;;;1.43;1.30;;;13.10;95.90;;;;;;4997416;28;20217;-62
2023/02/13 10:16:15;;;;;;;3.67;1.20;;;13.30;95.60;;;;;;4999400;28;20277;-62
2023/02/13 10:18:49;;;;;;;2.23;1.20;;;13.70;95.10;;;;;;4994861;28;20201;-63
2023/02/13 10:21:21;;;;;;;1.97;1.30;;;13.20;94.80;;;;;;4998049;28;20250;-62
2023/02/13 10:23:53;;;;;;;3.10;1.30;;;13.00;94.60;;;;;;5011815;28;20195;-62
2023/02/13 10:26:22;;;;;;;4.33;1.17;;;12.80;94.70;;;;;;4997332;28;20206;-63
2023/02/13 10:31:48;;;;;;;3.80;1.40;;;12.60;94.80;;;;;;4997624;28;20242;-62
2023/02/13 10:34:22;;;;;;;2.77;1.23;;;12.40;94.80;;;;;;4996150;28;20188;-62
2023/02/13 10:36:49;;;;;;;2.23;1.17;;;12.40;94.80;;;;;;4991194;28;20562;-62
2023/02/13 10:39:25;;;;;;;3.67;1.27;;;12.40;94.70;;;;;;4989870;28;20723;-62
2023/02/13 10:41:56;;;;;;;2.30;1.30;;;12.40;94.60;;;;;;4996725;28;20199;-62
2023/02/13 10:44:44;;;;;;;2.63;1.20;;;12.40;94.60;;;;;;4993238;28;20190;-62
2023/02/13 10:47:25;;;;;;;1.93;1.00;;;12.40;94.50;;;;;;4997104;28;20199;-63
2023/02/13 10:50:10;;;;;;;5.20;1.73;;;12.30;94.30;;;;;;4993567;28;20223;-63
2023/02/13 10:52:50;;;;;;;3.50;1.37;;;12.20;94.30;;;;;;4991686;28;20554;-62
2023/02/13 10:55:31;;;;;;;5.27;1.50;;;12.20;94.50;;;;;;4992748;28;20191;-62
2023/02/13 10:58:11;;;;;;;2.27;1.20;;;12.50;94.50;;;;;;4991741;28;20293;-62
2023/02/13 11:00:46;;;;;;;3.33;1.23;;;12.80;94.10;;;;;;4991328;28;20198;-62
2023/02/13 11:03:19;;;;;;;2.40;1.40;;;13.00;94.00;;;;;;4992241;28;20227;-62
2023/02/13 11:05:47;;;;;;;2.17;1.20;;;13.20;93.80;;;;;;4995465;28;20199;-62
2023/02/13 11:08:21;;;;;;;4.50;1.30;;;13.30;93.50;;;;;;4989275;28;20227;-63
2023/02/13 11:10:48;;;;;;;2.00;1.03;;;13.40;93.10;;;;;;4990885;28;20656;-63
2023/02/13 11:13:18;;;;;;;2.53;0.97;;;13.30;92.80;;;;;;4997538;28;20216;-63
2023/02/13 11:15:58;;;;;;;3.13;1.30;;;13.30;92.70;;;;;;5005108;28;20214;-62
2023/02/13 11:18:27;;;;;;;3.07;1.10;;;13.50;92.40;;;;;;4993668;28;20362;-62
2023/02/13 11:21:07;;;;;;;2.13;1.20;;;13.40;91.90;;;;;;4995047;28;20199;-63
2023/02/13 11:23:42;;;;;;;1.13;0.90;;;13.30;91.60;;;;;;4992797;28;20199;-62
2023/02/13 11:26:12;;;;;;;1.03;0.97;;;13.30;91.70;;;;;;4993023;28;20199;-63
2023/02/13 11:28:46;;;;;;;2.97;1.30;;;13.20;91.60;;;;;;4989162;28;20198;-63
2023/02/13 11:31:22;;;;;;;4.27;1.47;;;13.20;91.50;;;;;;4999247;28;20195;-63
2023/02/13 11:33:49;;;;;;;3.23;1.23;;;13.00;91.50;;;;;;4990011;28;20203;-63
2023/02/13 11:36:24;;;;;;;4.47;1.13;;;12.90;91.60;;;;;;4994239;28;20199;-62
2023/02/13 11:38:59;;;;;;;2.80;1.30;;;12.80;91.80;;;;;;4992145;28;20560;-62
2023/02/13 11:41:27;;;;;;;1.57;1.10;;;12.80;92.10;;;;;;4993207;28;20195;-63
2023/02/13 11:44:00;;;;;;;3.47;1.50;;;12.80;92.20;;;;;;4996695;28;20604;-63
2023/02/13 11:46:29;;;;;;;2.63;1.30;;;12.90;92.10;;;;;;4991395;28;20195;-63
2023/02/13 11:49:00;;;;;;;4.20;1.57;;;12.90;92.10;;;;;;4986430;28;20292;-63
2023/02/13 11:51:39;;;;;;;5.70;1.30;;;13.00;91.80;;;;;;4994452;28;20207;-63
2023/02/13 11:54:17;;;;;;;2.50;1.30;;;13.00;91.70;;;;;;4991205;28;20266;-62
2023/02/13 11:56:52;;;;;;;7.07;1.10;;;13.00;91.40;;;;;;4992982;28;20602;-63
2023/02/13 11:59:22;;;;;;;1.57;1.07;;;13.10;91.40;;;;;;4999805;28;20190;-62
2023/02/13 12:02:02;;;;;;;1.70;1.00;;;13.20;90.90;;;;;;4991517;28;20667;-63
2023/02/13 12:04:30;;;;;;;3.00;1.40;;;13.10;90.70;;;;;;4952878;28;20708;-63
2023/02/13 12:07:04;;;;;;;2.13;1.00;;;13.40;90.20;;;;;;4954278;28;20198;-64
2023/02/13 12:09:32;;;;;;;2.87;1.33;;;13.30;90.20;;;;;;4952488;28;20236;-62
2023/02/13 12:12:02;;;;;;;2.47;1.10;;;13.20;90.40;;;;;;4956728;28;20210;-62
2023/02/13 12:14:37;;;;;;;3.10;1.53;;;13.30;90.50;;;;;;4962177;28;20280;-62
2023/02/13 12:17:07;;;;;;;1.20;1.10;;;13.30;90.70;;;;;;4955940;28;20193;-62
2023/02/13 12:19:39;;;;;;;1.33;0.90;;;13.40;90.90;;;;;;4956257;28;20642;-63
2023/02/13 12:22:22;;;;;;;2.00;1.33;;;13.50;91.00;;;;;;4958224;28;20292;-63
2023/02/13 12:25:13;;;;;;;5.50;1.50;;;13.70;90.80;;;;;;4953683;28;20197;-61
2023/02/13 12:27:48;;;;;;;3.10;1.50;;;13.80;90.50;;;;;;4957330;28;20215;-62
2023/02/13 12:30:34;;;;;;;3.03;1.40;;;13.80;90.40;;;;;;4958066;28;20228;-63
2023/02/13 12:33:15;;;;;;;3.17;1.47;;;13.60;89.20;;;;;;4961005;28;20232;-63
2023/02/13 12:35:54;;;;;;;2.77;1.30;;;13.60;90.00;;;;;;4958406;28;20252;-63
2023/02/13 12:38:47;;;;;;;2.80;1.10;;;13.50;89.70;;;;;;4946664;28;20891;-63
2023/02/13 12:41:21;;;;;;;3.60;1.10;;;13.30;89.00;;;;;;4957119;28;20200;-62
2023/02/13 12:44:30;;;;;;;2.40;1.40;;;13.20;88.60;;;;;;4958075;28;20208;-63
2023/02/13 12:47:10;;;;;;;2.90;1.33;;;13.00;89.30;;;;;;4955834;28;20295;-62
2023/02/13 12:50:01;;;;;;;2.33;1.17;;;12.90;89.20;;;;;;4954167;28;20200;-62
2023/02/13 12:52:40;;;;;;;1.63;1.10;;;12.90;89.30;;;;;;4960268;28;20219;-62
2023/02/13 12:55:27;;;;;;;3.97;1.50;;;12.80;89.60;;;;;;4971837;28;20306;-62
2023/02/13 12:58:12;;;;;;;3.17;1.23;;;12.70;89.10;;;;;;4958382;28;20189;-65
2023/02/13 13:00:50;;;;;;;1.70;1.10;;;12.70;89.40;;;;;;4954156;28;20592;-62
2023/02/13 13:03:33;;;;;;;3.43;1.37;;;12.60;89.50;;;;;;4979763;28;20226;-63
2023/02/13 13:06:13;;;;;;;1.80;1.30;;;12.50;89.60;;;;;;4999148;28;20224;-63
2023/02/13 13:09:06;;;;;;;2.83;1.00;;;12.40;89.70;;;;;;4999103;28;20203;-61
2023/02/13 13:11:54;;;;;;;1.57;1.13;;;12.40;89.90;;;;;;4999964;28;20193;-63
2023/02/13 13:14:29;;;;;;;3.90;1.40;;;12.20;89.70;;;;;;4994017;28;20195;-63
2023/02/13 13:17:02;;;;;;;2.90;1.10;;;12.10;90.00;;;;;;5002429;28;20214;-62
2023/02/13 13:19:38;;;;;;;3.43;1.00;;;12.00;90.00;;;;;;4994273;28;20228;-62
2023/02/13 13:22:08;;;;;;;4.30;1.50;;;12.00;90.00;;;;;;4993503;28;20542;-62
2023/02/13 13:24:48;;;;;;;3.07;1.40;;;12.00;90.00;;;;;;4990451;28;20263;-63
2023/02/13 13:27:21;;;;;;;4.10;1.00;;;12.10;90.00;;;;;;4995803;28;20317;-63
2023/02/13 13:29:54;;;;;;;2.83;1.57;;;12.20;89.90;;;;;;4992527;28;20207;-62
2023/02/13 13:32:22;;;;;;;2.33;1.20;;;12.30;89.60;;;;;;5000025;28;20226;-63
2023/02/13 13:34:50;;;;;;;1.50;0.90;;;12.50;89.50;;;;;;4990271;28;20446;-63
2023/02/13 13:37:27;;;;;;;6.20;1.90;;;12.80;89.70;;;;;;4995169;28;20213;-62
2023/02/13 13:40:01;;;;;;;2.70;1.10;;;12.90;88.40;;;;;;4993900;28;20191;-62
2023/02/13 13:42:38;;;;;;;2.17;1.20;;;12.90;88.30;;;;;;4997787;28;20241;-62
2023/02/13 13:45:23;;;;;;;5.73;1.50;;;12.90;88.50;;;;;;4993081;28;20195;-62
2023/02/13 13:48:18;;;;;;;1.73;1.33;;;13.00;88.10;;;;;;4994211;28;20639;-62
2023/02/13 13:50:46;;;;;;;3.73;1.53;;;12.90;87.70;;;;;;4995711;28;20196;-63
2023/02/13 13:53:18;;;;;;;2.20;1.27;;;12.80;87.90;;;;;;4993725;28;20213;-60
2023/02/13 13:56:08;;;;;;;3.90;1.50;;;12.60;87.80;;;;;;4993331;28;20192;-60
2023/02/13 13:58:42;;;;;;;2.77;1.20;;;12.40;88.50;;;;;;4992882;28;20196;-62
2023/02/13 14:01:28;;;;;;;3.40;1.30;;;12.30;89.00;;;;;;4993033;28;20546;-63
2023/02/13 14:03:57;;;;;;;4.23;1.53;;;12.20;89.40;;;;;;4995585;28;20221;-62
2023/02/13 14:06:26;;;;;;;3.63;1.40;;;12.10;89.60;;;;;;4999307;28;20202;-62